www.cux-wetter.de
Wetterdaten: Dienstag, 20.11.2007
Datum Zeit Temp. A. Feuchte A. Luftdruck Regen Wind Richtung Richtung Sonnenschein Solar Taupunkt Windchill Windben
20.11.2007 00:01 3,1 C 91 % 1012,5 hPa 0,0 l/m 11,1 km/h (2 Bft) O-SO 105 0 min 0 W/m 1,8 C -0,8 C 11,1 km/h (2 Bft)
20.11.2007 00:06 3,1 C 91 % 1012,5 hPa 0,0 l/m 10,2 km/h (2 Bft) O-SO 120 0 min 0 W/m 1,8 C -0,2 C 10,2 km/h (2 Bft)
20.11.2007 00:11 3,2 C 91 % 1012,5 hPa 0,0 l/m 8,4 km/h (2 Bft) S-SO 165 0 min 0 W/m 1,9 C 1,4 C 8,4 km/h (2 Bft)
20.11.2007 00:16 3,2 C 91 % 1012,5 hPa 0,0 l/m 8,4 km/h (2 Bft) S-SO 150 0 min 0 W/m 1,9 C 1,4 C 8,4 km/h (2 Bft)
20.11.2007 00:21 3,2 C 91 % 1012,5 hPa 0,0 l/m 10,5 km/h (2 Bft) S-SO 150 0 min 0 W/m 1,9 C -0,3 C 10,5 km/h (2 Bft)
20.11.2007 00:26 3,2 C 91 % 1012,5 hPa 0,0 l/m 10,5 km/h (2 Bft) S-SO 150 0 min 0 W/m 1,9 C -0,3 C 10,5 km/h (2 Bft)
20.11.2007 00:31 3,2 C 91 % 1012,5 hPa 0,0 l/m 7,5 km/h (2 Bft) S 175 0 min 0 W/m 1,9 C 2,2 C 7,5 km/h (2 Bft)
20.11.2007 00:36 3,2 C 91 % 1012,5 hPa 0,0 l/m 7,8 km/h (2 Bft) S-SO 160 0 min 0 W/m 1,9 C 1,9 C 7,8 km/h (2 Bft)
20.11.2007 00:41 3,1 C 91 % 1012,5 hPa 0,0 l/m 6,3 km/h (2 Bft) S-SO 155 0 min 0 W/m 1,8 C 3,1 C 6,3 km/h (2 Bft)
20.11.2007 00:46 3,1 C 91 % 1012,5 hPa 0,0 l/m 6,9 km/h (2 Bft) S-SO 150 0 min 0 W/m 1,8 C 2,6 C 6,9 km/h (2 Bft)
20.11.2007 00:51 3,0 C 91 % 1012,5 hPa 0,0 l/m 7,1 km/h (2 Bft) SO 145 0 min 0 W/m 1,7 C 2,3 C 7,1 km/h (2 Bft)
20.11.2007 00:56 3,0 C 91 % 1013,5 hPa 0,0 l/m 9,0 km/h (2 Bft) S-SO 150 0 min 0 W/m 1,7 C 0,6 C 9,0 km/h (2 Bft)
20.11.2007 01:01 3,1 C 91 % 1013,5 hPa 0,0 l/m 1,3 km/h (1 Bft) SO 140 0 min 0 W/m 1,8 C 3,1 C 1,3 km/h (1 Bft)
20.11.2007 01:06 3,1 C 91 % 1013,5 hPa 0,0 l/m 6,2 km/h (2 Bft) SO 145 0 min 0 W/m 1,8 C 3,1 C 6,2 km/h (2 Bft)
20.11.2007 01:11 3,1 C 91 % 1013,5 hPa 0,0 l/m 8,4 km/h (2 Bft) S-SO 155 0 min 0 W/m 1,8 C 1,3 C 8,4 km/h (2 Bft)
20.11.2007 01:16 3,2 C 91 % 1013,5 hPa 0,0 l/m 9,9 km/h (2 Bft) S-SO 160 0 min 0 W/m 1,9 C 0,2 C 9,9 km/h (2 Bft)
20.11.2007 01:21 3,2 C 91 % 1013,5 hPa 0,0 l/m 12,3 km/h (2 Bft) S-SO 150 0 min 0 W/m 1,9 C -1,5 C 12,3 km/h (2 Bft)
20.11.2007 01:26 3,3 C 91 % 1013,5 hPa 0,0 l/m 8,1 km/h (2 Bft) S-SO 155 0 min 0 W/m 2,0 C 1,7 C 8,1 km/h (2 Bft)
20.11.2007 01:31 3,3 C 91 % 1013,5 hPa 0,0 l/m 8,4 km/h (2 Bft) SO 140 0 min 0 W/m 2,0 C 1,5 C 8,4 km/h (2 Bft)
20.11.2007 01:36 3,4 C 92 % 1012,5 hPa 0,0 l/m 8,9 km/h (2 Bft) SO 145 0 min 0 W/m 2,2 C 1,2 C 8,9 km/h (2 Bft)
20.11.2007 01:41 3,4 C 91 % 1012,5 hPa 0,0 l/m 7,2 km/h (2 Bft) SO 145 0 min 0 W/m 2,1 C 2,7 C 7,2 km/h (2 Bft)
20.11.2007 01:46 3,5 C 92 % 1013,5 hPa 0,0 l/m 11,0 km/h (2 Bft) S-SO 160 0 min 0 W/m 2,3 C -0,3 C 11,0 km/h (2 Bft)
20.11.2007 01:51 3,5 C 92 % 1013,5 hPa 0,0 l/m 13,0 km/h (3 Bft) S 175 0 min 0 W/m 2,3 C -1,6 C 13,0 km/h (3 Bft)
20.11.2007 01:56 3,5 C 92 % 1013,5 hPa 0,0 l/m 9,6 km/h (2 Bft) S-SO 165 0 min 0 W/m 2,3 C 0,7 C 9,6 km/h (2 Bft)
20.11.2007 02:01 3,5 C 92 % 1013,5 hPa 0,0 l/m 6,5 km/h (2 Bft) S 170 0 min 0 W/m 2,3 C 3,4 C 6,5 km/h (2 Bft)
20.11.2007 02:06 3,5 C 91 % 1013,5 hPa 0,0 l/m 6,2 km/h (2 Bft) SO 135 0 min 0 W/m 2,2 C 3,5 C 6,2 km/h (2 Bft)
20.11.2007 02:11 3,5 C 92 % 1013,5 hPa 0,0 l/m 8,1 km/h (2 Bft) S-SO 160 0 min 0 W/m 2,3 C 1,9 C 8,1 km/h (2 Bft)
20.11.2007 02:16 3,5 C 92 % 1013,5 hPa 0,0 l/m 5,2 km/h (1 Bft) S-SO 160 0 min 0 W/m 2,3 C 3,5 C 5,2 km/h (1 Bft)
20.11.2007 02:21 3,5 C 92 % 1013,5 hPa 0,0 l/m 8,1 km/h (2 Bft) S-SO 160 0 min 0 W/m 2,3 C 1,9 C 8,1 km/h (2 Bft)
20.11.2007 02:26 3,5 C 92 % 1013,5 hPa 0,0 l/m 6,4 km/h (2 Bft) S-SO 150 0 min 0 W/m 2,3 C 3,5 C 6,4 km/h (2 Bft)
20.11.2007 02:31 3,5 C 92 % 1013,5 hPa 0,0 l/m 7,6 km/h (2 Bft) SO 135 0 min 0 W/m 2,3 C 2,4 C 7,6 km/h (2 Bft)
20.11.2007 02:36 3,5 C 92 % 1013,5 hPa 0,0 l/m 9,8 km/h (2 Bft) SO 145 0 min 0 W/m 2,3 C 0,6 C 9,8 km/h (2 Bft)
20.11.2007 02:41 3,5 C 92 % 1013,5 hPa 0,0 l/m 7,3 km/h (2 Bft) SO 145 0 min 0 W/m 2,3 C 2,7 C 7,3 km/h (2 Bft)
20.11.2007 02:46 3,5 C 92 % 1013,5 hPa 0,0 l/m 7,6 km/h (2 Bft) SO 140 0 min 0 W/m 2,3 C 2,4 C 7,6 km/h (2 Bft)
20.11.2007 02:51 3,5 C 92 % 1013,5 hPa 0,0 l/m 9,8 km/h (2 Bft) SO 130 0 min 0 W/m 2,3 C 0,6 C 9,8 km/h (2 Bft)
20.11.2007 02:56 3,5 C 92 % 1013,5 hPa 0,0 l/m 10,3 km/h (2 Bft) SO 140 0 min 0 W/m 2,3 C 0,2 C 10,3 km/h (2 Bft)
20.11.2007 03:01 3,5 C 92 % 1013,5 hPa 0,0 l/m 0,3 km/h (0 Bft) SO 125 0 min 0 W/m 2,3 C 3,5 C 0,3 km/h (0 Bft)
20.11.2007 03:06 3,5 C 92 % 1013,5 hPa 0,0 l/m 0,3 km/h (0 Bft) SO 125 0 min 0 W/m 2,3 C 3,5 C 0,3 km/h (0 Bft)
20.11.2007 03:11 3,5 C 92 % 1012,5 hPa 0,0 l/m 6,8 km/h (2 Bft) O-SO 115 0 min 0 W/m 2,3 C 3,1 C 6,8 km/h (2 Bft)
20.11.2007 03:16 3,4 C 92 % 1012,5 hPa 0,0 l/m 6,8 km/h (2 Bft) SO 130 0 min 0 W/m 2,2 C 3,0 C 6,8 km/h (2 Bft)
20.11.2007 03:21 3,4 C 92 % 1012,5 hPa 0,0 l/m 5,6 km/h (2 Bft) SO 130 0 min 0 W/m 2,2 C 3,4 C 5,6 km/h (2 Bft)
20.11.2007 03:26 3,4 C 92 % 1012,5 hPa 0,0 l/m 6,9 km/h (2 Bft) SO 140 0 min 0 W/m 2,2 C 2,9 C 6,9 km/h (2 Bft)
20.11.2007 03:31 3,4 C 92 % 1012,5 hPa 0,0 l/m 3,6 km/h (1 Bft) SO 125 0 min 0 W/m 2,2 C 3,4 C 3,6 km/h (1 Bft)
20.11.2007 03:36 3,4 C 92 % 1012,5 hPa 0,0 l/m 4,3 km/h (1 Bft) SO 135 0 min 0 W/m 2,2 C 3,4 C 4,3 km/h (1 Bft)
20.11.2007 03:41 3,4 C 92 % 1012,5 hPa 0,0 l/m 5,9 km/h (2 Bft) SO 140 0 min 0 W/m 2,2 C 3,4 C 5,9 km/h (2 Bft)
20.11.2007 03:46 3,4 C 92 % 1012,5 hPa 0,0 l/m 8,7 km/h (2 Bft) SO 135 0 min 0 W/m 2,2 C 1,3 C 8,7 km/h (2 Bft)
20.11.2007 03:51 3,4 C 92 % 1012,5 hPa 0,0 l/m 6,8 km/h (2 Bft) O-SO 110 0 min 0 W/m 2,2 C 3,0 C 6,8 km/h (2 Bft)
20.11.2007 03:56 3,4 C 92 % 1012,5 hPa 0,0 l/m 0,9 km/h (0 Bft) S-SO 160 0 min 0 W/m 2,2 C 3,4 C 0,9 km/h (0 Bft)
20.11.2007 04:01 3,4 C 92 % 1012,5 hPa 0,0 l/m 7,8 km/h (2 Bft) SO 135 0 min 0 W/m 2,2 C 2,1 C 7,8 km/h (2 Bft)
20.11.2007 04:06 3,4 C 92 % 1012,5 hPa 0,0 l/m 9,5 km/h (2 Bft) SO 130 0 min 0 W/m 2,2 C 0,7 C 9,5 km/h (2 Bft)
20.11.2007 04:11 3,5 C 92 % 1012,5 hPa 0,0 l/m 7,2 km/h (2 Bft) S-SO 160 0 min 0 W/m 2,3 C 2,8 C 7,2 km/h (2 Bft)
20.11.2007 04:16 3,5 C 93 % 1012,5 hPa 0,0 l/m 7,6 km/h (2 Bft) SO 135 0 min 0 W/m 2,5 C 2,4 C 7,6 km/h (2 Bft)
20.11.2007 04:21 3,5 C 93 % 1012,5 hPa 0,0 l/m 6,7 km/h (2 Bft) SO 140 0 min 0 W/m 2,5 C 3,2 C 6,7 km/h (2 Bft)
20.11.2007 04:26 3,5 C 92 % 1012,5 hPa 0,0 l/m 6,3 km/h (2 Bft) O 95 0 min 0 W/m 2,3 C 3,5 C 6,3 km/h (2 Bft)
20.11.2007 04:31 3,5 C 93 % 1012,5 hPa 0,0 l/m 7,4 km/h (2 Bft) O 100 0 min 0 W/m 2,5 C 2,6 C 7,4 km/h (2 Bft)
20.11.2007 04:36 3,5 C 93 % 1012,5 hPa 0,0 l/m 4,8 km/h (1 Bft) SO 125 0 min 0 W/m 2,5 C 3,5 C 4,8 km/h (1 Bft)
20.11.2007 04:41 3,6 C 93 % 1012,5 hPa 0,0 l/m 5,8 km/h (2 Bft) O-SO 105 0 min 0 W/m 2,6 C 3,6 C 5,8 km/h (2 Bft)
20.11.2007 04:46 3,7 C 93 % 1012,5 hPa 0,0 l/m 6,0 km/h (2 Bft) SO 125 0 min 0 W/m 2,7 C 3,7 C 6,0 km/h (2 Bft)
20.11.2007 04:51 3,8 C 93 % 1012,5 hPa 0,0 l/m 6,1 km/h (2 Bft) O 95 0 min 0 W/m 2,8 C 3,8 C 6,1 km/h (2 Bft)
20.11.2007 04:56 3,9 C 93 % 1012,5 hPa 0,0 l/m 3,8 km/h (1 Bft) SO 125 0 min 0 W/m 2,9 C 3,9 C 3,8 km/h (1 Bft)
20.11.2007 05:01 3,9 C 93 % 1012,5 hPa 0,0 l/m 8,1 km/h (2 Bft) SO 130 0 min 0 W/m 2,9 C 2,4 C 8,1 km/h (2 Bft)
20.11.2007 05:06 3,9 C 93 % 1012,5 hPa 0,0 l/m 5,6 km/h (2 Bft) SO 130 0 min 0 W/m 2,9 C 3,9 C 5,6 km/h (2 Bft)
20.11.2007 05:11 3,9 C 93 % 1012,5 hPa 0,0 l/m 7,8 km/h (2 Bft) S-SO 150 0 min 0 W/m 2,9 C 2,6 C 7,8 km/h (2 Bft)
20.11.2007 05:16 4,1 C 93 % 1012,5 hPa 0,0 l/m 4,3 km/h (1 Bft) SO 130 0 min 0 W/m 3,1 C 4,1 C 4,3 km/h (1 Bft)
20.11.2007 05:21 4,1 C 93 % 1012,5 hPa 0,0 l/m 9,4 km/h (2 Bft) SO 135 0 min 0 W/m 3,1 C 1,5 C 9,4 km/h (2 Bft)
20.11.2007 05:26 4,1 C 92 % 1012,5 hPa 0,0 l/m 12,4 km/h (2 Bft) SO 145 0 min 0 W/m 2,9 C -0,5 C 12,4 km/h (2 Bft)
20.11.2007 05:31 4,1 C 92 % 1012,5 hPa 0,0 l/m 12,3 km/h (2 Bft) SO 140 0 min 0 W/m 2,9 C -0,5 C 12,3 km/h (2 Bft)
20.11.2007 05:36 4,0 C 92 % 1012,5 hPa 0,0 l/m 13,3 km/h (3 Bft) SO 145 0 min 0 W/m 2,8 C -1,2 C 13,3 km/h (3 Bft)
20.11.2007 05:41 4,0 C 92 % 1013,5 hPa 0,0 l/m 10,0 km/h (2 Bft) SO 140 0 min 0 W/m 2,8 C 1,0 C 10,0 km/h (2 Bft)
20.11.2007 05:46 3,9 C 92 % 1013,5 hPa 0,0 l/m 11,1 km/h (2 Bft) SO 135 0 min 0 W/m 2,7 C 0,1 C 11,1 km/h (2 Bft)
20.11.2007 05:51 3,9 C 92 % 1012,5 hPa 0,0 l/m 11,8 km/h (2 Bft) SO 140 0 min 0 W/m 2,7 C -0,4 C 11,8 km/h (2 Bft)
20.11.2007 05:56 3,9 C 92 % 1012,5 hPa 0,0 l/m 10,4 km/h (2 Bft) SO 140 0 min 0 W/m 2,7 C 0,6 C 10,4 km/h (2 Bft)
20.11.2007 06:01 3,9 C 92 % 1012,5 hPa 0,0 l/m 12,3 km/h (2 Bft) SO 130 0 min 0 W/m 2,7 C -0,7 C 12,3 km/h (2 Bft)
20.11.2007 06:06 3,9 C 92 % 1012,5 hPa 0,0 l/m 14,5 km/h (3 Bft) SO 135 0 min 0 W/m 2,7 C -2,0 C 14,5 km/h (3 Bft)
20.11.2007 06:11 3,9 C 92 % 1012,5 hPa 0,0 l/m 15,0 km/h (3 Bft) SO 135 0 min 0 W/m 2,7 C -2,3 C 15,0 km/h (3 Bft)
20.11.2007 06:16 3,9 C 92 % 1012,5 hPa 0,0 l/m 12,2 km/h (2 Bft) S-SO 150 0 min 0 W/m 2,7 C -0,6 C 12,2 km/h (2 Bft)
20.11.2007 06:21 4,0 C 92 % 1012,5 hPa 0,0 l/m 10,2 km/h (2 Bft) SO 125 0 min 0 W/m 2,8 C 0,8 C 10,2 km/h (2 Bft)
20.11.2007 06:26 3,9 C 92 % 1012,5 hPa 0,0 l/m 11,8 km/h (2 Bft) SO 125 0 min 0 W/m 2,7 C -0,4 C 11,8 km/h (2 Bft)
20.11.2007 06:31 3,9 C 92 % 1012,5 hPa 0,0 l/m 13,3 km/h (3 Bft) SO 125 0 min 0 W/m 2,7 C -1,3 C 13,3 km/h (3 Bft)
20.11.2007 06:36 4,0 C 92 % 1012,5 hPa 0,0 l/m 11,1 km/h (2 Bft) SO 145 0 min 0 W/m 2,8 C 0,2 C 11,1 km/h (2 Bft)
20.11.2007 06:41 4,1 C 92 % 1012,5 hPa 0,0 l/m 9,7 km/h (2 Bft) S-SO 150 0 min 0 W/m 2,9 C 1,3 C 9,7 km/h (2 Bft)
20.11.2007 06:46 4,1 C 92 % 1012,5 hPa 0,0 l/m 12,5 km/h (2 Bft) SO 145 0 min 0 W/m 2,9 C -0,6 C 12,5 km/h (2 Bft)
20.11.2007 06:51 4,1 C 92 % 1012,5 hPa 0,0 l/m 11,3 km/h (2 Bft) S-SO 150 0 min 0 W/m 2,9 C 0,2 C 11,3 km/h (2 Bft)
20.11.2007 06:56 4,1 C 92 % 1012,5 hPa 0,0 l/m 12,5 km/h (2 Bft) S-SO 160 0 min 0 W/m 2,9 C -0,6 C 12,5 km/h (2 Bft)
20.11.2007 07:01 4,1 C 92 % 1012,5 hPa 0,0 l/m 12,0 km/h (2 Bft) S-SO 150 0 min 0 W/m 2,9 C -0,3 C 12,0 km/h (2 Bft)
20.11.2007 07:06 4,1 C 92 % 1012,5 hPa 0,0 l/m 8,5 km/h (2 Bft) S-SO 150 0 min 0 W/m 2,9 C 2,2 C 8,5 km/h (2 Bft)
20.11.2007 07:11 4,1 C 92 % 1012,5 hPa 0,0 l/m 7,0 km/h (2 Bft) S-SO 155 0 min 0 W/m 2,9 C 3,6 C 7,0 km/h (2 Bft)
20.11.2007 07:16 4,2 C 92 % 1012,5 hPa 0,0 l/m 13,3 km/h (3 Bft) SO 145 0 min 0 W/m 3,0 C -1,0 C 13,3 km/h (3 Bft)
20.11.2007 07:21 4,2 C 92 % 1012,5 hPa 0,0 l/m 10,5 km/h (2 Bft) SO 145 0 min 0 W/m 3,0 C 0,8 C 10,5 km/h (2 Bft)
20.11.2007 07:26 4,1 C 92 % 1012,5 hPa 0,0 l/m 10,4 km/h (2 Bft) SO 140 0 min 0 W/m 2,9 C 0,8 C 10,4 km/h (2 Bft)
20.11.2007 07:31 4,1 C 92 % 1012,5 hPa 0,0 l/m 7,5 km/h (2 Bft) S-SO 155 0 min 0 W/m 2,9 C 3,1 C 7,5 km/h (2 Bft)
20.11.2007 07:36 4,1 C 92 % 1012,5 hPa 0,0 l/m 0,9 km/h (0 Bft) SO 130 0 min 0 W/m 2,9 C 4,1 C 0,9 km/h (0 Bft)
20.11.2007 07:41 4,1 C 92 % 1013,5 hPa 0,0 l/m 5,9 km/h (2 Bft) SO 140 0 min 0 W/m 2,9 C 4,1 C 5,9 km/h (2 Bft)
20.11.2007 07:46 4,1 C 92 % 1013,5 hPa 0,0 l/m 0,7 km/h (0 Bft) S-SO 155 0 min 0 W/m 2,9 C 4,1 C 0,7 km/h (0 Bft)
20.11.2007 07:51 4,2 C 92 % 1013,5 hPa 0,0 l/m 6,2 km/h (2 Bft) SO 135 0 min 0 W/m 3,0 C 4,2 C 6,2 km/h (2 Bft)
20.11.2007 07:56 4,2 C 92 % 1013,5 hPa 0,0 l/m 8,6 km/h (2 Bft) SO 135 0 min 0 W/m 3,0 C 2,3 C 8,6 km/h (2 Bft)
20.11.2007 08:01 4,2 C 92 % 1013,5 hPa 0,0 l/m 11,4 km/h (2 Bft) S-SO 150 0 min 0 W/m 3,0 C 0,2 C 11,4 km/h (2 Bft)
20.11.2007 08:06 4,2 C 92 % 1013,5 hPa 0,0 l/m 9,4 km/h (2 Bft) SO 140 0 min 0 W/m 3,0 C 1,6 C 9,4 km/h (2 Bft)
20.11.2007 08:11 4,2 C 92 % 1012,5 hPa 0,0 l/m 11,9 km/h (2 Bft) S-SO 150 0 min 0 W/m 3,0 C -0,1 C 11,9 km/h (2 Bft)
20.11.2007 08:16 4,3 C 92 % 1012,5 hPa 0,0 l/m 12,1 km/h (2 Bft) SO 145 0 min 0 W/m 3,1 C -0,1 C 12,1 km/h (2 Bft)
20.11.2007 08:21 4,3 C 92 % 1012,5 hPa 0,0 l/m 9,8 km/h (2 Bft) S-SO 150 0 min 0 W/m 3,1 C 1,4 C 9,8 km/h (2 Bft)
20.11.2007 08:26 4,3 C 92 % 1012,5 hPa 0,0 l/m 7,3 km/h (2 Bft) SO 140 0 min 0 W/m 3,1 C 3,5 C 7,3 km/h (2 Bft)
20.11.2007 08:31 4,5 C 92 % 1013,5 hPa 0,0 l/m 7,2 km/h (2 Bft) S-SO 160 0 min 0 W/m 3,3 C 3,8 C 7,2 km/h (2 Bft)
20.11.2007 08:36 4,5 C 91 % 1013,5 hPa 0,0 l/m 7,2 km/h (2 Bft) S-SO 160 0 min 0 W/m 3,2 C 3,8 C 7,2 km/h (2 Bft)
20.11.2007 08:41 4,6 C 91 % 1013,5 hPa 0,0 l/m 11,7 km/h (2 Bft) S-SO 165 0 min 0 W/m 3,3 C 0,5 C 11,7 km/h (2 Bft)
20.11.2007 08:46 4,6 C 91 % 1013,5 hPa 0,0 l/m 11,0 km/h (2 Bft) S-SO 165 0 min 0 W/m 3,3 C 0,9 C 11,0 km/h (2 Bft)
20.11.2007 08:51 4,5 C 90 % 1013,5 hPa 0,0 l/m 11,6 km/h (2 Bft) S-SO 155 0 min 0 W/m 3,0 C 0,4 C 11,6 km/h (2 Bft)
20.11.2007 08:56 4,5 C 90 % 1013,5 hPa 0,0 l/m 10,6 km/h (2 Bft) SO 145 0 min 0 W/m 3,0 C 1,1 C 10,6 km/h (2 Bft)
20.11.2007 09:01 4,5 C 90 % 1013,5 hPa 0,0 l/m 11,6 km/h (2 Bft) S-SO 150 0 min 0 W/m 3,0 C 0,4 C 11,6 km/h (2 Bft)
20.11.2007 09:06 4,5 C 90 % 1013,5 hPa 0,0 l/m 15,0 km/h (3 Bft) SO 145 0 min 0 W/m 3,0 C -1,5 C 15,0 km/h (3 Bft)
20.11.2007 09:11 4,5 C 90 % 1013,5 hPa 0,0 l/m 12,6 km/h (3 Bft) SO 145 0 min 0 W/m 3,0 C -0,2 C 12,6 km/h (3 Bft)
20.11.2007 09:16 4,5 C 90 % 1013,5 hPa 0,0 l/m 11,6 km/h (2 Bft) S-SO 150 0 min 0 W/m 3,0 C 0,4 C 11,6 km/h (2 Bft)
20.11.2007 09:21 4,5 C 90 % 1013,5 hPa 0,0 l/m 10,7 km/h (2 Bft) SO 140 0 min 0 W/m 3,0 C 1,0 C 10,7 km/h (2 Bft)
20.11.2007 09:26 4,5 C 90 % 1013,5 hPa 0,0 l/m 14,3 km/h (3 Bft) SO 135 0 min 0 W/m 3,0 C -1,2 C 14,3 km/h (3 Bft)
20.11.2007 09:31 4,5 C 89 % 1013,5 hPa 0,0 l/m 10,3 km/h (2 Bft) SO 135 0 min 0 W/m 2,8 C 1,3 C 10,3 km/h (2 Bft)
20.11.2007 09:36 4,4 C 89 % 1013,5 hPa 0,0 l/m 10,6 km/h (2 Bft) SO 145 0 min 0 W/m 2,7 C 1,0 C 10,6 km/h (2 Bft)
20.11.2007 09:41 4,5 C 89 % 1013,5 hPa 0,0 l/m 13,1 km/h (3 Bft) SO 125 0 min 0 W/m 2,8 C -0,5 C 13,1 km/h (3 Bft)
20.11.2007 09:46 4,4 C 89 % 1013,5 hPa 0,0 l/m 11,4 km/h (2 Bft) SO 130 0 min 0 W/m 2,7 C 0,4 C 11,4 km/h (2 Bft)
20.11.2007 09:51 4,5 C 90 % 1013,5 hPa 0,0 l/m 11,4 km/h (2 Bft) SO 125 0 min 0 W/m 3,0 C 0,6 C 11,4 km/h (2 Bft)
20.11.2007 09:56 4,5 C 89 % 1013,5 hPa 0,0 l/m 5,2 km/h (1 Bft) O-SO 110 0 min 0 W/m 2,8 C 4,5 C 5,2 km/h (1 Bft)
20.11.2007 10:01 4,5 C 90 % 1013,5 hPa 0,0 l/m 11,7 km/h (2 Bft) O-SO 115 0 min 0 W/m 3,0 C 0,4 C 11,7 km/h (2 Bft)
20.11.2007 10:06 4,6 C 90 % 1013,5 hPa 0,0 l/m 6,7 km/h (2 Bft) O 100 0 min 0 W/m 3,1 C 4,3 C 6,7 km/h (2 Bft)
20.11.2007 10:11 4,7 C 90 % 1013,5 hPa 0,0 l/m 14,1 km/h (3 Bft) O-SO 115 0 min 0 W/m 3,2 C -0,8 C 14,1 km/h (3 Bft)
20.11.2007 10:16 4,8 C 90 % 1013,5 hPa 0,0 l/m 10,3 km/h (2 Bft) O 90 0 min 0 W/m 3,3 C 1,6 C 10,3 km/h (2 Bft)
20.11.2007 10:21 4,8 C 90 % 1013,5 hPa 0,0 l/m 12,7 km/h (3 Bft) SO 130 0 min 0 W/m 3,3 C 0,1 C 12,7 km/h (3 Bft)
20.11.2007 10:26 4,9 C 89 % 1013,5 hPa 0,0 l/m 12,5 km/h (2 Bft) SO 125 0 min 0 W/m 3,2 C 0,3 C 12,5 km/h (2 Bft)
20.11.2007 10:31 5,1 C 89 % 1013,5 hPa 0,0 l/m 13,3 km/h (3 Bft) O-SO 120 0 min 0 W/m 3,4 C 0,1 C 13,3 km/h (3 Bft)
20.11.2007 10:36 5,2 C 89 % 1013,5 hPa 0,0 l/m 10,5 km/h (2 Bft) O-SO 115 0 min 0 W/m 3,5 C 1,9 C 10,5 km/h (2 Bft)
20.11.2007 10:41 5,2 C 89 % 1013,5 hPa 0,0 l/m 11,3 km/h (2 Bft) SO 140 0 min 0 W/m 3,5 C 1,4 C 11,3 km/h (2 Bft)
20.11.2007 10:46 5,2 C 89 % 1013,5 hPa 0,0 l/m 12,8 km/h (3 Bft) SO 125 0 min 0 W/m 3,5 C 0,5 C 12,8 km/h (3 Bft)
20.11.2007 10:51 5,2 C 89 % 1013,5 hPa 0,0 l/m 17,1 km/h (3 Bft) SO 125 0 min 0 W/m 3,5 C -1,7 C 17,1 km/h (3 Bft)
20.11.2007 10:56 5,2 C 88 % 1013,5 hPa 0,0 l/m 15,7 km/h (3 Bft) SO 130 0 min 0 W/m 3,4 C -1,0 C 15,7 km/h (3 Bft)
20.11.2007 11:01 4,9 C 88 % 1013,5 hPa 0,0 l/m 15,9 km/h (3 Bft) SO 130 0 min 0 W/m 3,1 C -1,5 C 15,9 km/h (3 Bft)
20.11.2007 11:06 4,9 C 88 % 1013,5 hPa 0,0 l/m 15,6 km/h (3 Bft) O-SO 115 0 min 0 W/m 3,1 C -1,3 C 15,6 km/h (3 Bft)
20.11.2007 11:11 4,8 C 88 % 1013,5 hPa 0,0 l/m 17,1 km/h (3 Bft) SO 130 0 min 0 W/m 3,0 C -2,2 C 17,1 km/h (3 Bft)
20.11.2007 11:16 4,8 C 88 % 1013,5 hPa 0,0 l/m 17,0 km/h (3 Bft) O-SO 115 0 min 0 W/m 3,0 C -2,1 C 17,0 km/h (3 Bft)
20.11.2007 11:21 4,7 C 88 % 1013,5 hPa 0,0 l/m 14,9 km/h (3 Bft) SO 125 0 min 0 W/m 2,9 C -1,2 C 14,9 km/h (3 Bft)
20.11.2007 11:26 4,8 C 88 % 1013,5 hPa 0,0 l/m 14,8 km/h (3 Bft) SO 135 0 min 0 W/m 3,0 C -1,1 C 14,8 km/h (3 Bft)
20.11.2007 11:31 4,9 C 88 % 1013,5 hPa 0,0 l/m 18,8 km/h (3 Bft) O-SO 120 0 min 0 W/m 3,1 C -2,8 C 18,8 km/h (3 Bft)
20.11.2007 11:36 4,9 C 88 % 1013,5 hPa 0,0 l/m 14,0 km/h (3 Bft) O-SO 115 0 min 0 W/m 3,1 C -0,5 C 14,0 km/h (3 Bft)
20.11.2007 11:41 5,1 C 88 % 1013,5 hPa 0,0 l/m 14,7 km/h (3 Bft) SO 135 0 min 0 W/m 3,3 C -0,6 C 14,7 km/h (3 Bft)
20.11.2007 11:46 5,2 C 88 % 1013,5 hPa 0,0 l/m 14,2 km/h (3 Bft) O-SO 120 0 min 0 W/m 3,4 C -0,3 C 14,2 km/h (3 Bft)
20.11.2007 11:51 5,2 C 88 % 1013,5 hPa 0,0 l/m 17,2 km/h (3 Bft) O-SO 120 0 min 0 W/m 3,4 C -1,7 C 17,2 km/h (3 Bft)
20.11.2007 11:56 5,4 C 87 % 1013,5 hPa 0,0 l/m 14,7 km/h (3 Bft) O-SO 115 0 min 0 W/m 3,4 C -0,3 C 14,7 km/h (3 Bft)
20.11.2007 12:01 5,4 C 87 % 1012,5 hPa 0,0 l/m 17,0 km/h (3 Bft) SO 130 0 min 0 W/m 3,4 C -1,4 C 17,0 km/h (3 Bft)
20.11.2007 12:06 5,6 C 87 % 1012,5 hPa 0,0 l/m 13,5 km/h (3 Bft) SO 125 0 min 0 W/m 3,6 C 0,6 C 13,5 km/h (3 Bft)
20.11.2007 12:11 5,8 C 86 % 1012,5 hPa 0,0 l/m 13,5 km/h (3 Bft) SO 125 0 min 0 W/m 3,6 C 0,8 C 13,5 km/h (3 Bft)
20.11.2007 12:16 5,8 C 86 % 1012,5 hPa 0,0 l/m 17,5 km/h (3 Bft) SO 135 0 min 0 W/m 3,6 C -1,1 C 17,5 km/h (3 Bft)
20.11.2007 12:21 5,9 C 86 % 1012,5 hPa 0,0 l/m 12,7 km/h (3 Bft) O-SO 120 0 min 0 W/m 3,7 C 1,4 C 12,7 km/h (3 Bft)
20.11.2007 12:26 5,9 C 85 % 1012,5 hPa 0,0 l/m 13,6 km/h (3 Bft) SO 125 0 min 0 W/m 3,6 C 0,9 C 13,6 km/h (3 Bft)
20.11.2007 12:31 6,0 C 85 % 1012,5 hPa 0,0 l/m 15,1 km/h (3 Bft) O-SO 105 0 min 0 W/m 3,7 C 0,2 C 15,1 km/h (3 Bft)
20.11.2007 12:36 6,0 C 85 % 1012,5 hPa 0,0 l/m 13,5 km/h (3 Bft) O-SO 105 0 min 0 W/m 3,7 C 1,1 C 13,5 km/h (3 Bft)
20.11.2007 12:41 6,0 C 84 % 1012,5 hPa 0,0 l/m 12,6 km/h (3 Bft) SO 125 0 min 0 W/m 3,5 C 1,6 C 12,6 km/h (3 Bft)
20.11.2007 12:46 5,9 C 85 % 1012,5 hPa 0,0 l/m 17,1 km/h (3 Bft) SO 135 0 min 0 W/m 3,6 C -0,8 C 17,1 km/h (3 Bft)
20.11.2007 12:51 5,9 C 85 % 1012,5 hPa 0,0 l/m 14,4 km/h (3 Bft) SO 130 0 min 0 W/m 3,6 C 0,5 C 14,4 km/h (3 Bft)
20.11.2007 12:56 5,9 C 85 % 1012,5 hPa 0,0 l/m 11,7 km/h (2 Bft) SO 135 0 min 0 W/m 3,6 C 2,0 C 11,7 km/h (2 Bft)
20.11.2007 13:01 6,0 C 86 % 1012,5 hPa 0,0 l/m 14,6 km/h (3 Bft) SO 145 0 min 0 W/m 3,8 C 0,5 C 14,6 km/h (3 Bft)
20.11.2007 13:06 6,0 C 86 % 1012,5 hPa 0,0 l/m 12,3 km/h (2 Bft) S-SO 150 0 min 0 W/m 3,8 C 1,7 C 12,3 km/h (2 Bft)
20.11.2007 13:11 6,1 C 85 % 1012,5 hPa 0,0 l/m 14,6 km/h (3 Bft) SO 140 0 min 0 W/m 3,8 C 0,6 C 14,6 km/h (3 Bft)
20.11.2007 13:16 6,2 C 85 % 1012,5 hPa 0,0 l/m 13,9 km/h (3 Bft) S-SO 150 0 min 0 W/m 3,9 C 1,1 C 13,9 km/h (3 Bft)
20.11.2007 13:21 6,2 C 84 % 1012,5 hPa 0,0 l/m 10,0 km/h (2 Bft) S-SO 150 0 min 0 W/m 3,7 C 3,4 C 10,0 km/h (2 Bft)
20.11.2007 13:26 6,4 C 83 % 1012,5 hPa 0,0 l/m 14,7 km/h (3 Bft) S-SO 150 0 min 0 W/m 3,7 C 0,9 C 14,7 km/h (3 Bft)
20.11.2007 13:31 6,4 C 83 % 1012,5 hPa 0,0 l/m 14,5 km/h (3 Bft) S-SO 150 0 min 0 W/m 3,7 C 1,0 C 14,5 km/h (3 Bft)
20.11.2007 13:36 6,4 C 83 % 1012,5 hPa 0,0 l/m 11,4 km/h (2 Bft) S-SO 150 0 min 0 W/m 3,7 C 2,7 C 11,4 km/h (2 Bft)
20.11.2007 13:41 6,5 C 82 % 1012,5 hPa 0,0 l/m 13,4 km/h (3 Bft) S-SO 160 0 min 0 W/m 3,7 C 1,7 C 13,4 km/h (3 Bft)
20.11.2007 13:46 6,5 C 82 % 1012,5 hPa 0,0 l/m 14,0 km/h (3 Bft) S-SO 150 0 min 0 W/m 3,7 C 1,4 C 14,0 km/h (3 Bft)
20.11.2007 13:51 6,5 C 82 % 1012,5 hPa 0,0 l/m 18,6 km/h (3 Bft) S-SO 150 0 min 0 W/m 3,7 C -0,7 C 18,6 km/h (3 Bft)
20.11.2007 13:56 6,6 C 82 % 1012,5 hPa 0,0 l/m 18,0 km/h (3 Bft) S-SO 155 0 min 0 W/m 3,8 C -0,3 C 18,0 km/h (3 Bft)
20.11.2007 14:01 6,9 C 81 % 1012,5 hPa 0,0 l/m 13,9 km/h (3 Bft) S-SO 165 0 min 0 W/m 3,9 C 1,9 C 13,9 km/h (3 Bft)
20.11.2007 14:06 7,2 C 79 % 1012,5 hPa 0,0 l/m 18,8 km/h (3 Bft) S-SO 150 0 min 0 W/m 3,8 C 0,1 C 18,8 km/h (3 Bft)
20.11.2007 14:11 7,3 C 79 % 1012,5 hPa 0,0 l/m 16,1 km/h (3 Bft) S-SO 155 0 min 0 W/m 3,9 C 1,4 C 16,1 km/h (3 Bft)
20.11.2007 14:16 7,3 C 78 % 1012,5 hPa 0,0 l/m 14,0 km/h (3 Bft) S-SO 155 0 min 0 W/m 3,7 C 2,3 C 14,0 km/h (3 Bft)
20.11.2007 14:21 7,2 C 78 % 1012,5 hPa 0,0 l/m 12,7 km/h (3 Bft) SO 145 0 min 0 W/m 3,6 C 2,9 C 12,7 km/h (3 Bft)
20.11.2007 14:26 7,0 C 79 % 1012,5 hPa 0,0 l/m 12,0 km/h (2 Bft) SO 140 0 min 0 W/m 3,6 C 3,1 C 12,0 km/h (2 Bft)
20.11.2007 14:31 6,9 C 79 % 1012,5 hPa 0,0 l/m 11,8 km/h (2 Bft) SO 145 0 min 0 W/m 3,5 C 3,1 C 11,8 km/h (2 Bft)
20.11.2007 14:36 6,8 C 80 % 1012,5 hPa 0,0 l/m 11,0 km/h (2 Bft) SO 145 0 min 0 W/m 3,6 C 3,4 C 11,0 km/h (2 Bft)
20.11.2007 14:41 6,8 C 80 % 1012,5 hPa 0,0 l/m 10,1 km/h (2 Bft) SO 140 0 min 0 W/m 3,6 C 4,0 C 10,1 km/h (2 Bft)
20.11.2007 14:46 6,7 C 80 % 1012,5 hPa 0,0 l/m 10,1 km/h (2 Bft) SO 130 0 min 0 W/m 3,5 C 3,9 C 10,1 km/h (2 Bft)
20.11.2007 14:51 6,7 C 81 % 1012,5 hPa 0,0 l/m 8,8 km/h (2 Bft) SO 135 0 min 0 W/m 3,7 C 4,8 C 8,8 km/h (2 Bft)
20.11.2007 14:56 6,7 C 82 % 1012,5 hPa 0,0 l/m 9,6 km/h (2 Bft) SO 130 0 min 0 W/m 3,8 C 4,2 C 9,6 km/h (2 Bft)
20.11.2007 15:01 6,8 C 82 % 1012,5 hPa 0,0 l/m 10,9 km/h (2 Bft) SO 145 0 min 0 W/m 3,9 C 3,5 C 10,9 km/h (2 Bft)
20.11.2007 15:06 6,7 C 81 % 1012,5 hPa 0,0 l/m 12,0 km/h (2 Bft) SO 145 0 min 0 W/m 3,7 C 2,7 C 12,0 km/h (2 Bft)
20.11.2007 15:11 6,7 C 81 % 1012,5 hPa 0,0 l/m 9,0 km/h (2 Bft) SO 125 0 min 0 W/m 3,7 C 4,6 C 9,0 km/h (2 Bft)
20.11.2007 15:16 6,6 C 81 % 1012,5 hPa 0,0 l/m 8,5 km/h (2 Bft) O-SO 115 0 min 0 W/m 3,6 C 4,9 C 8,5 km/h (2 Bft)
20.11.2007 15:21 6,5 C 82 % 1012,5 hPa 0,0 l/m 10,2 km/h (2 Bft) O-SO 110 0 min 0 W/m 3,7 C 3,6 C 10,2 km/h (2 Bft)
20.11.2007 15:26 6,4 C 82 % 1012,5 hPa 0,0 l/m 11,2 km/h (2 Bft) SO 135 0 min 0 W/m 3,6 C 2,8 C 11,2 km/h (2 Bft)
20.11.2007 15:31 6,2 C 82 % 1012,5 hPa 0,0 l/m 10,5 km/h (2 Bft) O-SO 110 0 min 0 W/m 3,4 C 3,1 C 10,5 km/h (2 Bft)
20.11.2007 15:36 6,2 C 83 % 1011,5 hPa 0,0 l/m 12,6 km/h (3 Bft) SO 125 0 min 0 W/m 3,5 C 1,8 C 12,6 km/h (3 Bft)
20.11.2007 15:41 6,0 C 83 % 1012,5 hPa 0,0 l/m 15,3 km/h (3 Bft) SO 130 0 min 0 W/m 3,3 C 0,1 C 15,3 km/h (3 Bft)
20.11.2007 15:46 6,0 C 83 % 1012,5 hPa 0,0 l/m 16,6 km/h (3 Bft) SO 140 0 min 0 W/m 3,3 C -0,5 C 16,6 km/h (3 Bft)
20.11.2007 15:51 5,9 C 83 % 1012,5 hPa 0,0 l/m 17,8 km/h (3 Bft) SO 130 0 min 0 W/m 3,2 C -1,1 C 17,8 km/h (3 Bft)
20.11.2007 15:56 5,8 C 83 % 1012,5 hPa 0,0 l/m 17,6 km/h (3 Bft) SO 125 0 min 0 W/m 3,1 C -1,2 C 17,6 km/h (3 Bft)
20.11.2007 16:01 5,7 C 84 % 1012,5 hPa 0,0 l/m 13,3 km/h (3 Bft) O-SO 120 0 min 0 W/m 3,2 C 0,8 C 13,3 km/h (3 Bft)
20.11.2007 16:06 5,6 C 84 % 1012,5 hPa 0,0 l/m 17,9 km/h (3 Bft) SO 125 0 min 0 W/m 3,1 C -1,5 C 17,9 km/h (3 Bft)
20.11.2007 16:11 5,5 C 84 % 1012,5 hPa 0,0 l/m 13,0 km/h (3 Bft) SO 135 0 min 0 W/m 3,0 C 0,7 C 13,0 km/h (3 Bft)
20.11.2007 16:16 5,5 C 84 % 1012,5 hPa 0,0 l/m 14,8 km/h (3 Bft) SO 125 0 min 0 W/m 3,0 C -0,2 C 14,8 km/h (3 Bft)
20.11.2007 16:21 5,4 C 85 % 1012,5 hPa 0,0 l/m 14,8 km/h (3 Bft) O-SO 120 0 min 0 W/m 3,1 C -0,3 C 14,8 km/h (3 Bft)
20.11.2007 16:26 5,3 C 85 % 1012,5 hPa 0,0 l/m 15,5 km/h (3 Bft) SO 135 0 min 0 W/m 3,0 C -0,8 C 15,5 km/h (3 Bft)
20.11.2007 16:31 5,2 C 85 % 1012,5 hPa 0,0 l/m 11,6 km/h (2 Bft) SO 135 0 min 0 W/m 2,9 C 1,2 C 11,6 km/h (2 Bft)
20.11.2007 16:36 5,2 C 85 % 1012,5 hPa 0,0 l/m 10,6 km/h (2 Bft) S-SO 150 0 min 0 W/m 2,9 C 1,9 C 10,6 km/h (2 Bft)
20.11.2007 16:41 5,2 C 85 % 1012,5 hPa 0,0 l/m 17,3 km/h (3 Bft) SO 145 0 min 0 W/m 2,9 C -1,8 C 17,3 km/h (3 Bft)
20.11.2007 16:46 5,1 C 85 % 1012,5 hPa 0,0 l/m 12,4 km/h (2 Bft) S-SO 155 0 min 0 W/m 2,8 C 0,6 C 12,4 km/h (2 Bft)
20.11.2007 16:51 4,9 C 86 % 1012,5 hPa 0,0 l/m 13,8 km/h (3 Bft) S-SO 150 0 min 0 W/m 2,8 C -0,4 C 13,8 km/h (3 Bft)
20.11.2007 16:56 4,9 C 86 % 1012,5 hPa 0,0 l/m 10,8 km/h (2 Bft) S-SO 150 0 min 0 W/m 2,8 C 1,4 C 10,8 km/h (2 Bft)
20.11.2007 17:01 4,8 C 86 % 1012,5 hPa 0,0 l/m 13,1 km/h (3 Bft) S-SO 150 0 min 0 W/m 2,7 C -0,1 C 13,1 km/h (3 Bft)
20.11.2007 17:06 4,7 C 86 % 1012,5 hPa 0,0 l/m 11,2 km/h (2 Bft) SO 145 0 min 0 W/m 2,6 C 0,9 C 11,2 km/h (2 Bft)
20.11.2007 17:11 4,7 C 86 % 1012,5 hPa 0,0 l/m 13,0 km/h (3 Bft) S-SO 155 0 min 0 W/m 2,6 C -0,2 C 13,0 km/h (3 Bft)
20.11.2007 17:16 4,7 C 86 % 1012,5 hPa 0,0 l/m 17,4 km/h (3 Bft) S 170 0 min 0 W/m 2,6 C -2,5 C 17,4 km/h (3 Bft)
20.11.2007 17:21 4,7 C 86 % 1012,5 hPa 0,0 l/m 14,8 km/h (3 Bft) S-SO 160 0 min 0 W/m 2,6 C -1,2 C 14,8 km/h (3 Bft)
20.11.2007 17:26 4,7 C 86 % 1012,5 hPa 0,0 l/m 14,6 km/h (3 Bft) S-SO 165 0 min 0 W/m 2,6 C -1,1 C 14,6 km/h (3 Bft)
20.11.2007 17:31 4,6 C 86 % 1012,5 hPa 0,0 l/m 12,3 km/h (2 Bft) S-SO 165 0 min 0 W/m 2,5 C 0,1 C 12,3 km/h (2 Bft)
20.11.2007 17:36 4,6 C 86 % 1012,5 hPa 0,0 l/m 16,0 km/h (3 Bft) S-SO 160 0 min 0 W/m 2,5 C -1,9 C 16,0 km/h (3 Bft)
20.11.2007 17:41 4,6 C 86 % 1012,5 hPa 0,0 l/m 12,9 km/h (3 Bft) S-SO 150 0 min 0 W/m 2,5 C -0,2 C 12,9 km/h (3 Bft)
20.11.2007 17:46 4,6 C 86 % 1012,5 hPa 0,0 l/m 16,6 km/h (3 Bft) SO 140 0 min 0 W/m 2,5 C -2,2 C 16,6 km/h (3 Bft)
20.11.2007 17:51 4,7 C 86 % 1012,5 hPa 0,0 l/m 16,6 km/h (3 Bft) SO 145 0 min 0 W/m 2,6 C -2,1 C 16,6 km/h (3 Bft)
20.11.2007 17:56 4,7 C 86 % 1012,5 hPa 0,0 l/m 13,5 km/h (3 Bft) SO 135 0 min 0 W/m 2,6 C -0,5 C 13,5 km/h (3 Bft)
20.11.2007 18:01 4,7 C 86 % 1012,5 hPa 0,0 l/m 17,0 km/h (3 Bft) SO 135 0 min 0 W/m 2,6 C -2,3 C 17,0 km/h (3 Bft)
20.11.2007 18:06 4,8 C 86 % 1012,5 hPa 0,0 l/m 16,0 km/h (3 Bft) SO 135 0 min 0 W/m 2,7 C -1,7 C 16,0 km/h (3 Bft)
20.11.2007 18:11 4,9 C 85 % 1012,5 hPa 0,0 l/m 15,6 km/h (3 Bft) SO 140 0 min 0 W/m 2,6 C -1,3 C 15,6 km/h (3 Bft)
20.11.2007 18:16 4,9 C 85 % 1011,5 hPa 0,0 l/m 7,7 km/h (2 Bft) O-SO 120 0 min 0 W/m 2,6 C 3,8 C 7,7 km/h (2 Bft)
20.11.2007 18:21 5,1 C 86 % 1011,5 hPa 0,0 l/m 14,0 km/h (3 Bft) SO 125 0 min 0 W/m 3,0 C -0,3 C 14,0 km/h (3 Bft)
20.11.2007 18:26 5,1 C 86 % 1011,5 hPa 0,0 l/m 16,6 km/h (3 Bft) SO 140 0 min 0 W/m 3,0 C -1,6 C 16,6 km/h (3 Bft)
20.11.2007 18:31 4,9 C 86 % 1011,5 hPa 0,0 l/m 17,6 km/h (3 Bft) O-SO 115 0 min 0 W/m 2,8 C -2,3 C 17,6 km/h (3 Bft)
20.11.2007 18:36 4,9 C 86 % 1011,5 hPa 0,0 l/m 17,2 km/h (3 Bft) SO 135 0 min 0 W/m 2,8 C -2,1 C 17,2 km/h (3 Bft)
20.11.2007 18:41 4,8 C 86 % 1011,5 hPa 0,0 l/m 15,6 km/h (3 Bft) SO 140 0 min 0 W/m 2,7 C -1,5 C 15,6 km/h (3 Bft)
20.11.2007 18:46 4,7 C 87 % 1011,5 hPa 0,0 l/m 23,8 km/h (4 Bft) SO 145 0 min 0 W/m 2,7 C -5,0 C 23,8 km/h (4 Bft)
20.11.2007 18:51 4,7 C 87 % 1011,5 hPa 0,0 l/m 15,7 km/h (3 Bft) SO 135 0 min 0 W/m 2,7 C -1,6 C 15,7 km/h (3 Bft)
20.11.2007 18:56 4,6 C 87 % 1011,5 hPa 0,0 l/m 16,5 km/h (3 Bft) SO 130 0 min 0 W/m 2,6 C -2,2 C 16,5 km/h (3 Bft)
20.11.2007 19:01 4,5 C 87 % 1011,5 hPa 0,0 l/m 14,3 km/h (3 Bft) SO 135 0 min 0 W/m 2,5 C -1,2 C 14,3 km/h (3 Bft)
20.11.2007 19:06 4,5 C 87 % 1011,5 hPa 0,0 l/m 15,0 km/h (3 Bft) SO 135 0 min 0 W/m 2,5 C -1,5 C 15,0 km/h (3 Bft)
20.11.2007 19:11 4,4 C 88 % 1011,5 hPa 0,0 l/m 18,4 km/h (3 Bft) SO 125 0 min 0 W/m 2,6 C -3,3 C 18,4 km/h (3 Bft)
20.11.2007 19:16 4,3 C 88 % 1011,5 hPa 0,0 l/m 15,6 km/h (3 Bft) O-SO 120 0 min 0 W/m 2,5 C -2,1 C 15,6 km/h (3 Bft)
20.11.2007 19:21 4,3 C 88 % 1011,5 hPa 0,0 l/m 9,6 km/h (2 Bft) SO 145 0 min 0 W/m 2,5 C 1,6 C 9,6 km/h (2 Bft)
20.11.2007 19:26 4,3 C 88 % 1011,5 hPa 0,0 l/m 19,2 km/h (3 Bft) SO 125 0 min 0 W/m 2,5 C -3,7 C 19,2 km/h (3 Bft)
20.11.2007 19:31 4,3 C 88 % 1011,5 hPa 0,0 l/m 14,5 km/h (3 Bft) SO 135 0 min 0 W/m 2,5 C -1,5 C 14,5 km/h (3 Bft)
20.11.2007 19:36 4,2 C 88 % 1011,5 hPa 0,0 l/m 15,7 km/h (3 Bft) O-SO 120 0 min 0 W/m 2,4 C -2,3 C 15,7 km/h (3 Bft)
20.11.2007 19:41 4,1 C 88 % 1011,5 hPa 0,0 l/m 15,0 km/h (3 Bft) SO 125 0 min 0 W/m 2,3 C -2,0 C 15,0 km/h (3 Bft)
20.11.2007 19:46 4,1 C 88 % 1011,5 hPa 0,0 l/m 14,9 km/h (3 Bft) SO 125 0 min 0 W/m 2,3 C -2,0 C 14,9 km/h (3 Bft)
20.11.2007 19:51 4,0 C 88 % 1011,5 hPa 0,0 l/m 15,0 km/h (3 Bft) O-SO 120 0 min 0 W/m 2,2 C -2,1 C 15,0 km/h (3 Bft)
20.11.2007 19:56 3,9 C 88 % 1011,5 hPa 0,0 l/m 12,8 km/h (3 Bft) SO 140 0 min 0 W/m 2,1 C -1,0 C 12,8 km/h (3 Bft)
20.11.2007 20:01 3,9 C 88 % 1011,5 hPa 0,0 l/m 14,5 km/h (3 Bft) SO 125 0 min 0 W/m 2,1 C -2,0 C 14,5 km/h (3 Bft)
20.11.2007 20:06 3,9 C 88 % 1011,5 hPa 0,0 l/m 15,2 km/h (3 Bft) SO 125 0 min 0 W/m 2,1 C -2,4 C 15,2 km/h (3 Bft)
20.11.2007 20:11 3,9 C 89 % 1011,5 hPa 0,0 l/m 15,2 km/h (3 Bft) SO 125 0 min 0 W/m 2,3 C -2,4 C 15,2 km/h (3 Bft)
20.11.2007 20:16 3,8 C 89 % 1011,5 hPa 0,0 l/m 14,4 km/h (3 Bft) SO 130 0 min 0 W/m 2,2 C -2,1 C 14,4 km/h (3 Bft)
20.11.2007 20:21 3,7 C 89 % 1011,5 hPa 0,0 l/m 12,8 km/h (3 Bft) SO 125 0 min 0 W/m 2,1 C -1,2 C 12,8 km/h (3 Bft)
20.11.2007 20:26 3,7 C 89 % 1011,5 hPa 0,0 l/m 14,6 km/h (3 Bft) O-SO 120 0 min 0 W/m 2,1 C -2,3 C 14,6 km/h (3 Bft)
20.11.2007 20:31 3,6 C 89 % 1011,5 hPa 0,0 l/m 14,3 km/h (3 Bft) SO 140 0 min 0 W/m 2,0 C -2,2 C 14,3 km/h (3 Bft)
20.11.2007 20:36 3,5 C 89 % 1011,5 hPa 0,0 l/m 12,0 km/h (2 Bft) SO 140 0 min 0 W/m 1,9 C -1,0 C 12,0 km/h (2 Bft)
20.11.2007 20:41 3,5 C 90 % 1011,5 hPa 0,0 l/m 16,6 km/h (3 Bft) SO 135 0 min 0 W/m 2,0 C -3,6 C 16,6 km/h (3 Bft)
20.11.2007 20:46 3,5 C 90 % 1011,5 hPa 0,0 l/m 17,6 km/h (3 Bft) SO 135 0 min 0 W/m 2,0 C -4,0 C 17,6 km/h (3 Bft)
20.11.2007 20:51 3,5 C 90 % 1011,5 hPa 0,0 l/m 19,6 km/h (3 Bft) SO 140 0 min 0 W/m 2,0 C -4,9 C 19,6 km/h (3 Bft)
20.11.2007 20:56 3,5 C 90 % 1011,5 hPa 0,0 l/m 15,5 km/h (3 Bft) SO 130 0 min 0 W/m 2,0 C -3,0 C 15,5 km/h (3 Bft)
20.11.2007 21:01 3,5 C 90 % 1011,5 hPa 0,0 l/m 13,9 km/h (3 Bft) SO 125 0 min 0 W/m 2,0 C -2,1 C 13,9 km/h (3 Bft)
20.11.2007 21:06 3,5 C 90 % 1011,5 hPa 0,0 l/m 18,6 km/h (3 Bft) SO 135 0 min 0 W/m 2,0 C -4,5 C 18,6 km/h (3 Bft)
20.11.2007 21:11 3,5 C 90 % 1011,5 hPa 0,0 l/m 14,3 km/h (3 Bft) SO 130 0 min 0 W/m 2,0 C -2,4 C 14,3 km/h (3 Bft)
20.11.2007 21:16 3,4 C 90 % 1011,5 hPa 0,0 l/m 17,6 km/h (3 Bft) SO 135 0 min 0 W/m 1,9 C -4,2 C 17,6 km/h (3 Bft)
20.11.2007 21:21 3,4 C 90 % 1011,5 hPa 0,0 l/m 19,5 km/h (3 Bft) SO 135 0 min 0 W/m 1,9 C -5,0 C 19,5 km/h (3 Bft)
20.11.2007 21:26 3,3 C 90 % 1011,5 hPa 0,0 l/m 13,7 km/h (3 Bft) SO 135 0 min 0 W/m 1,8 C -2,3 C 13,7 km/h (3 Bft)
20.11.2007 21:31 3,3 C 90 % 1011,5 hPa 0,0 l/m 13,7 km/h (3 Bft) SO 135 0 min 0 W/m 1,8 C -2,3 C 13,7 km/h (3 Bft)
20.11.2007 21:36 3,2 C 90 % 1011,5 hPa 0,0 l/m 21,0 km/h (4 Bft) SO 125 0 min 0 W/m 1,7 C -5,9 C 21,0 km/h (4 Bft)
20.11.2007 21:41 3,2 C 90 % 1011,5 hPa 0,0 l/m 16,3 km/h (3 Bft) SO 130 0 min 0 W/m 1,7 C -3,8 C 16,3 km/h (3 Bft)
20.11.2007 21:46 3,1 C 90 % 1011,5 hPa 0,0 l/m 16,9 km/h (3 Bft) SO 130 0 min 0 W/m 1,6 C -4,2 C 16,9 km/h (3 Bft)
20.11.2007 21:51 3,1 C 90 % 1010,5 hPa 0,0 l/m 14,4 km/h (3 Bft) SO 125 0 min 0 W/m 1,6 C -2,9 C 14,4 km/h (3 Bft)
20.11.2007 21:56 3,1 C 90 % 1010,5 hPa 0,0 l/m 16,1 km/h (3 Bft) O-SO 115 0 min 0 W/m 1,6 C -3,8 C 16,1 km/h (3 Bft)
20.11.2007 22:02 3,1 C 90 % 1010,5 hPa 0,0 l/m 16,8 km/h (3 Bft) SO 125 0 min 0 W/m 1,6 C -4,2 C 16,8 km/h (3 Bft)
20.11.2007 22:07 3,1 C 91 % 1010,5 hPa 0,0 l/m 19,3 km/h (3 Bft) SO 130 0 min 0 W/m 1,8 C -5,3 C 19,3 km/h (3 Bft)
20.11.2007 22:12 3,0 C 91 % 1010,5 hPa 0,0 l/m 15,8 km/h (3 Bft) O-SO 110 0 min 0 W/m 1,7 C -3,8 C 15,8 km/h (3 Bft)
20.11.2007 22:17 3,0 C 91 % 1010,5 hPa 0,0 l/m 16,8 km/h (3 Bft) O-SO 110 0 min 0 W/m 1,7 C -4,3 C 16,8 km/h (3 Bft)
20.11.2007 22:22 3,0 C 91 % 1010,5 hPa 0,0 l/m 23,9 km/h (4 Bft) O-SO 105 0 min 0 W/m 1,7 C -7,3 C 23,9 km/h (4 Bft)
20.11.2007 22:27 3,0 C 91 % 1010,5 hPa 0,0 l/m 14,1 km/h (3 Bft) O-SO 115 0 min 0 W/m 1,7 C -2,8 C 14,1 km/h (3 Bft)
20.11.2007 22:32 3,0 C 91 % 1010,5 hPa 0,0 l/m 20,3 km/h (4 Bft) O-SO 115 0 min 0 W/m 1,7 C -5,9 C 20,3 km/h (4 Bft)
20.11.2007 22:37 2,9 C 91 % 1010,5 hPa 0,0 l/m 20,5 km/h (4 Bft) SO 125 0 min 0 W/m 1,6 C -6,1 C 20,5 km/h (4 Bft)
20.11.2007 22:42 2,9 C 91 % 1010,5 hPa 0,0 l/m 19,0 km/h (3 Bft) SO 135 0 min 0 W/m 1,6 C -5,4 C 19,0 km/h (3 Bft)
20.11.2007 22:47 2,9 C 92 % 1010,5 hPa 0,0 l/m 15,4 km/h (3 Bft) SO 145 0 min 0 W/m 1,7 C -3,7 C 15,4 km/h (3 Bft)
20.11.2007 22:52 2,9 C 92 % 1010,5 hPa 0,0 l/m 16,3 km/h (3 Bft) SO 130 0 min 0 W/m 1,7 C -4,2 C 16,3 km/h (3 Bft)
20.11.2007 22:57 2,9 C 92 % 1010,5 hPa 0,0 l/m 24,8 km/h (4 Bft) SO 130 0 min 0 W/m 1,7 C -7,7 C 24,8 km/h (4 Bft)
20.11.2007 23:02 2,8 C 92 % 1010,5 hPa 0,0 l/m 18,1 km/h (3 Bft) SO 140 0 min 0 W/m 1,6 C -5,2 C 18,1 km/h (3 Bft)
20.11.2007 23:07 2,7 C 92 % 1010,5 hPa 0,0 l/m 24,5 km/h (4 Bft) SO 135 0 min 0 W/m 1,5 C -7,9 C 24,5 km/h (4 Bft)
20.11.2007 23:12 2,7 C 92 % 1010,5 hPa 0,0 l/m 19,4 km/h (3 Bft) SO 145 0 min 0 W/m 1,5 C -5,9 C 19,4 km/h (3 Bft)
20.11.2007 23:17 2,6 C 92 % 1010,5 hPa 0,0 l/m 14,3 km/h (3 Bft) SO 125 0 min 0 W/m 1,4 C -3,4 C 14,3 km/h (3 Bft)
20.11.2007 23:22 2,5 C 92 % 1010,5 hPa 0,0 l/m 20,1 km/h (4 Bft) SO 135 0 min 0 W/m 1,3 C -6,4 C 20,1 km/h (4 Bft)
20.11.2007 23:27 2,5 C 92 % 1010,5 hPa 0,0 l/m 15,6 km/h (3 Bft) SO 130 0 min 0 W/m 1,3 C -4,3 C 15,6 km/h (3 Bft)
20.11.2007 23:32 2,5 C 92 % 1010,5 hPa 0,0 l/m 18,1 km/h (3 Bft) O-SO 120 0 min 0 W/m 1,3 C -5,5 C 18,1 km/h (3 Bft)
20.11.2007 23:37 2,4 C 92 % 1010,5 hPa 0,0 l/m 20,2 km/h (4 Bft) O-SO 115 0 min 0 W/m 1,2 C -6,6 C 20,2 km/h (4 Bft)
20.11.2007 23:42 2,5 C 93 % 1010,5 hPa 0,0 l/m 20,6 km/h (4 Bft) O-SO 115 0 min 0 W/m 1,5 C -6,7 C 20,6 km/h (4 Bft)
20.11.2007 23:47 2,5 C 93 % 1010,5 hPa 0,0 l/m 20,6 km/h (4 Bft) O-SO 115 0 min 0 W/m 1,5 C -6,7 C 20,6 km/h (4 Bft)
20.11.2007 23:51 2,5 C 93 % 1010,5 hPa 0,0 l/m 20,4 km/h (4 Bft) O-SO 120 0 min 0 W/m 1,5 C -6,6 C 20,4 km/h (4 Bft)
20.11.2007 23:57 2,5 C 93 % 1010,5 hPa 0,0 l/m 18,3 km/h (3 Bft) O-SO 110 0 min 0 W/m 1,5 C -5,6 C 18,3 km/h (3 Bft)
_ Min-Zeit 23:37 14:16 21:51 - 03:01 - - - - 23:37 23:07 03:01
Minimum _ 2,4 C 78 % 1010,5 hPa - 0,3 km/h (0 Bft) - - - - 1,2 C -7,9 C 0,3 km/h (0 Bft)
_ Max-Zeit 14:11 04:16 00:56 00:01 22:57 - - 00:01 00:01 15:01 15:16 22:57
Maximum _ 7,3 C 93 % 1013,5 hPa 0,0 l/m 24,8 km/h
SO (4 Bft)
- - 0 min 0 W/m 3,9 C 4,9 C 24,8 km/h
SO (4 Bft)
Durchschnitt _ 4,4 C 89 % 1012,4 hPa #0,0 l/m 12,4 km/h (2 Bft) SO - #0 min. 0 W/m 2,7 C 0,0 C 12,4 km/h (2 Bft)
copyright by Holger Just